<?xml version="1.0" encoding="UTF-8" standalone="no" ?>
<gpx xmlns="http://www.topografix.com/GPX/1/1" xmlns:xsi="http://www.w3.org/2001/XMLSchema-instance" xsi:schemaLocation="http://www.topografix.com/GPX/1/1 http://www.topografix.com/GPX/1/1/gpx.xsd" version="1.1" creator="VisuGPX - https://www.visugpx.com">
  <metadata>
    <name>Gorges de Régalon</name>
    <desc><![CDATA[Juste un aller-retour facile dans ces gorges magnifiques, impressionnantes car très resserrées (60cm de large parfois, hauteur 30-40m) ...
Départ du parking de la Tuilère, parcours évident à suivre ...
A noter, la bifurcation en bout de trace: sur le sentier menant aux Mayorques un panneau \"accès interdit\" obbligeant ceux qui voudraient faire une boucle Mayorque - Croupatas - la Tuilère à faire le grand tour au nord ...]]></desc>
  </metadata>
  <trk>
    <name><![CDATA[REGALON]]></name>
    <trkseg>
      <trkpt lat="43.75928" lon="5.15647">
        <ele>130.88</ele>
        <time>2012-09-10T11:13:04Z</time>
      </trkpt>
      <trkpt lat="43.75928" lon="5.15647">
        <ele>129.92</ele>
        <time>2012-09-10T11:13:20Z</time>
      </trkpt>
      <trkpt lat="43.75933" lon="5.15647">
        <ele>129.43</ele>
        <time>2012-09-10T11:13:26Z</time>
      </trkpt>
      <trkpt lat="43.75944" lon="5.15652">
        <ele>129.43</ele>
        <time>2012-09-10T11:13:39Z</time>
      </trkpt>
      <trkpt lat="43.75944" lon="5.15654">
        <ele>129.43</ele>
        <time>2012-09-10T11:13:41Z</time>
      </trkpt>
      <trkpt lat="43.75946" lon="5.15655">
        <ele>129.92</ele>
        <time>2012-09-10T11:13:43Z</time>
      </trkpt>
      <trkpt lat="43.75949" lon="5.15662">
        <ele>129.92</ele>
        <time>2012-09-10T11:13:49Z</time>
      </trkpt>
      <trkpt lat="43.75955" lon="5.15678">
        <ele>129.92</ele>
        <time>2012-09-10T11:14:01Z</time>
      </trkpt>
      <trkpt lat="43.75969" lon="5.15694">
        <ele>130.4</ele>
        <time>2012-09-10T11:14:10Z</time>
      </trkpt>
      <trkpt lat="43.75972" lon="5.15697">
        <ele>130.4</ele>
        <time>2012-09-10T11:14:13Z</time>
      </trkpt>
      <trkpt lat="43.75981" lon="5.15695">
        <ele>130.88</ele>
        <time>2012-09-10T11:14:25Z</time>
      </trkpt>
      <trkpt lat="43.75992" lon="5.15688">
        <ele>130.4</ele>
        <time>2012-09-10T11:14:39Z</time>
      </trkpt>
      <trkpt lat="43.75994" lon="5.15694">
        <ele>130.88</ele>
        <time>2012-09-10T11:14:44Z</time>
      </trkpt>
      <trkpt lat="43.76005" lon="5.15698">
        <ele>129.92</ele>
        <time>2012-09-10T11:14:56Z</time>
      </trkpt>
      <trkpt lat="43.76008" lon="5.15698">
        <ele>129.92</ele>
        <time>2012-09-10T11:14:58Z</time>
      </trkpt>
      <trkpt lat="43.76025" lon="5.15703">
        <ele>129.92</ele>
        <time>2012-09-10T11:15:12Z</time>
      </trkpt>
      <trkpt lat="43.76028" lon="5.15701">
        <ele>129.92</ele>
        <time>2012-09-10T11:15:17Z</time>
      </trkpt>
      <trkpt lat="43.76037" lon="5.15701">
        <ele>129.92</ele>
        <time>2012-09-10T11:15:24Z</time>
      </trkpt>
      <trkpt lat="43.76043" lon="5.15699">
        <ele>130.4</ele>
        <time>2012-09-10T11:15:28Z</time>
      </trkpt>
      <trkpt lat="43.76055" lon="5.15702">
        <ele>130.88</ele>
        <time>2012-09-10T11:15:38Z</time>
      </trkpt>
      <trkpt lat="43.7606" lon="5.15715">
        <ele>131.36</ele>
        <time>2012-09-10T11:15:54Z</time>
      </trkpt>
      <trkpt lat="43.76062" lon="5.15727">
        <ele>131.36</ele>
        <time>2012-09-10T11:16:08Z</time>
      </trkpt>
      <trkpt lat="43.76069" lon="5.15724">
        <ele>131.84</ele>
        <time>2012-09-10T11:16:15Z</time>
      </trkpt>
      <trkpt lat="43.76074" lon="5.15715">
        <ele>132.32</ele>
        <time>2012-09-10T11:16:24Z</time>
      </trkpt>
      <trkpt lat="43.76089" lon="5.15712">
        <ele>132.8</ele>
        <time>2012-09-10T11:16:42Z</time>
      </trkpt>
      <trkpt lat="43.76095" lon="5.15706">
        <ele>134.72</ele>
        <time>2012-09-10T11:16:53Z</time>
      </trkpt>
      <trkpt lat="43.76098" lon="5.15702">
        <ele>135.2</ele>
        <time>2012-09-10T11:17:02Z</time>
      </trkpt>
      <trkpt lat="43.761" lon="5.15702">
        <ele>136.16</ele>
        <time>2012-09-10T11:17:04Z</time>
      </trkpt>
      <trkpt lat="43.76115" lon="5.15701">
        <ele>134.72</ele>
        <time>2012-09-10T11:17:18Z</time>
      </trkpt>
      <trkpt lat="43.76118" lon="5.15701">
        <ele>135.2</ele>
        <time>2012-09-10T11:17:23Z</time>
      </trkpt>
      <trkpt lat="43.76129" lon="5.15699">
        <ele>135.68</ele>
        <time>2012-09-10T11:17:36Z</time>
      </trkpt>
      <trkpt lat="43.76142" lon="5.157">
        <ele>135.68</ele>
        <time>2012-09-10T11:17:45Z</time>
      </trkpt>
      <trkpt lat="43.76148" lon="5.15701">
        <ele>135.68</ele>
        <time>2012-09-10T11:17:50Z</time>
      </trkpt>
      <trkpt lat="43.76153" lon="5.157">
        <ele>136.16</ele>
        <time>2012-09-10T11:17:54Z</time>
      </trkpt>
      <trkpt lat="43.76168" lon="5.157">
        <ele>136.64</ele>
        <time>2012-09-10T11:18:06Z</time>
      </trkpt>
      <trkpt lat="43.76182" lon="5.15697">
        <ele>136.64</ele>
        <time>2012-09-10T11:18:18Z</time>
      </trkpt>
      <trkpt lat="43.76196" lon="5.15696">
        <ele>137.61</ele>
        <time>2012-09-10T11:18:30Z</time>
      </trkpt>
      <trkpt lat="43.76212" lon="5.15696">
        <ele>137.61</ele>
        <time>2012-09-10T11:18:43Z</time>
      </trkpt>
      <trkpt lat="43.76224" lon="5.15695">
        <ele>138.57</ele>
        <time>2012-09-10T11:18:53Z</time>
      </trkpt>
      <trkpt lat="43.76237" lon="5.15693">
        <ele>139.53</ele>
        <time>2012-09-10T11:19:06Z</time>
      </trkpt>
      <trkpt lat="43.76251" lon="5.15675">
        <ele>140.49</ele>
        <time>2012-09-10T11:19:19Z</time>
      </trkpt>
      <trkpt lat="43.76252" lon="5.15671">
        <ele>140.01</ele>
        <time>2012-09-10T11:19:23Z</time>
      </trkpt>
      <trkpt lat="43.76257" lon="5.1566">
        <ele>140.01</ele>
        <time>2012-09-10T11:19:30Z</time>
      </trkpt>
      <trkpt lat="43.7626" lon="5.15643">
        <ele>139.53</ele>
        <time>2012-09-10T11:19:43Z</time>
      </trkpt>
      <trkpt lat="43.76261" lon="5.15636">
        <ele>140.01</ele>
        <time>2012-09-10T11:19:48Z</time>
      </trkpt>
      <trkpt lat="43.76269" lon="5.15609">
        <ele>140.97</ele>
        <time>2012-09-10T11:20:03Z</time>
      </trkpt>
      <trkpt lat="43.76269" lon="5.15605">
        <ele>140.49</ele>
        <time>2012-09-10T11:20:05Z</time>
      </trkpt>
      <trkpt lat="43.76271" lon="5.15591">
        <ele>141.45</ele>
        <time>2012-09-10T11:20:14Z</time>
      </trkpt>
      <trkpt lat="43.76283" lon="5.15577">
        <ele>140.97</ele>
        <time>2012-09-10T11:20:28Z</time>
      </trkpt>
      <trkpt lat="43.76284" lon="5.15575">
        <ele>141.45</ele>
        <time>2012-09-10T11:20:30Z</time>
      </trkpt>
      <trkpt lat="43.76297" lon="5.15573">
        <ele>141.45</ele>
        <time>2012-09-10T11:20:44Z</time>
      </trkpt>
      <trkpt lat="43.76298" lon="5.15573">
        <ele>142.41</ele>
        <time>2012-09-10T11:20:45Z</time>
      </trkpt>
      <trkpt lat="43.76311" lon="5.15573">
        <ele>141.93</ele>
        <time>2012-09-10T11:20:57Z</time>
      </trkpt>
      <trkpt lat="43.76329" lon="5.15573">
        <ele>142.41</ele>
        <time>2012-09-10T11:21:10Z</time>
      </trkpt>
      <trkpt lat="43.76332" lon="5.15573">
        <ele>142.41</ele>
        <time>2012-09-10T11:21:12Z</time>
      </trkpt>
      <trkpt lat="43.76347" lon="5.15572">
        <ele>143.85</ele>
        <time>2012-09-10T11:21:26Z</time>
      </trkpt>
      <trkpt lat="43.76358" lon="5.1557">
        <ele>143.85</ele>
        <time>2012-09-10T11:21:36Z</time>
      </trkpt>
      <trkpt lat="43.76367" lon="5.15569">
        <ele>144.34</ele>
        <time>2012-09-10T11:21:43Z</time>
      </trkpt>
      <trkpt lat="43.76379" lon="5.15576">
        <ele>144.82</ele>
        <time>2012-09-10T11:21:56Z</time>
      </trkpt>
      <trkpt lat="43.76381" lon="5.1558">
        <ele>144.82</ele>
        <time>2012-09-10T11:21:59Z</time>
      </trkpt>
      <trkpt lat="43.76388" lon="5.15596">
        <ele>143.85</ele>
        <time>2012-09-10T11:22:14Z</time>
      </trkpt>
      <trkpt lat="43.76389" lon="5.15596">
        <ele>143.85</ele>
        <time>2012-09-10T11:22:29Z</time>
      </trkpt>
      <trkpt lat="43.76389" lon="5.15591">
        <ele>143.85</ele>
        <time>2012-09-10T11:22:53Z</time>
      </trkpt>
      <trkpt lat="43.76395" lon="5.15596">
        <ele>143.85</ele>
        <time>2012-09-10T11:23:18Z</time>
      </trkpt>
      <trkpt lat="43.7641" lon="5.15606">
        <ele>145.3</ele>
        <time>2012-09-10T11:23:35Z</time>
      </trkpt>
      <trkpt lat="43.76423" lon="5.15616">
        <ele>145.78</ele>
        <time>2012-09-10T11:23:52Z</time>
      </trkpt>
      <trkpt lat="43.76429" lon="5.15625">
        <ele>145.78</ele>
        <time>2012-09-10T11:23:58Z</time>
      </trkpt>
      <trkpt lat="43.76432" lon="5.15655">
        <ele>145.78</ele>
        <time>2012-09-10T11:24:16Z</time>
      </trkpt>
      <trkpt lat="43.76439" lon="5.15676">
        <ele>146.26</ele>
        <time>2012-09-10T11:24:32Z</time>
      </trkpt>
      <trkpt lat="43.7644" lon="5.15686">
        <ele>146.26</ele>
        <time>2012-09-10T11:24:47Z</time>
      </trkpt>
      <trkpt lat="43.76445" lon="5.15693">
        <ele>146.26</ele>
        <time>2012-09-10T11:25:13Z</time>
      </trkpt>
      <trkpt lat="43.76451" lon="5.157">
        <ele>146.26</ele>
        <time>2012-09-10T11:25:23Z</time>
      </trkpt>
      <trkpt lat="43.76453" lon="5.15699">
        <ele>146.74</ele>
        <time>2012-09-10T11:25:25Z</time>
      </trkpt>
      <trkpt lat="43.76465" lon="5.15705">
        <ele>147.22</ele>
        <time>2012-09-10T11:25:37Z</time>
      </trkpt>
      <trkpt lat="43.76465" lon="5.15706">
        <ele>147.7</ele>
        <time>2012-09-10T11:25:38Z</time>
      </trkpt>
      <trkpt lat="43.76467" lon="5.15722">
        <ele>146.74</ele>
        <time>2012-09-10T11:25:51Z</time>
      </trkpt>
      <trkpt lat="43.76467" lon="5.15724">
        <ele>147.22</ele>
        <time>2012-09-10T11:25:55Z</time>
      </trkpt>
      <trkpt lat="43.76473" lon="5.1573">
        <ele>147.7</ele>
        <time>2012-09-10T11:26:07Z</time>
      </trkpt>
      <trkpt lat="43.76479" lon="5.15736">
        <ele>147.7</ele>
        <time>2012-09-10T11:26:20Z</time>
      </trkpt>
      <trkpt lat="43.76485" lon="5.15737">
        <ele>148.66</ele>
        <time>2012-09-10T11:26:32Z</time>
      </trkpt>
      <trkpt lat="43.76493" lon="5.15737">
        <ele>148.66</ele>
        <time>2012-09-10T11:26:44Z</time>
      </trkpt>
      <trkpt lat="43.76502" lon="5.15733">
        <ele>149.14</ele>
        <time>2012-09-10T11:26:55Z</time>
      </trkpt>
      <trkpt lat="43.76507" lon="5.15734">
        <ele>149.14</ele>
        <time>2012-09-10T11:27:08Z</time>
      </trkpt>
      <trkpt lat="43.76509" lon="5.15734">
        <ele>149.62</ele>
        <time>2012-09-10T11:27:11Z</time>
      </trkpt>
      <trkpt lat="43.76512" lon="5.15734">
        <ele>149.62</ele>
        <time>2012-09-10T11:27:13Z</time>
      </trkpt>
      <trkpt lat="43.7652" lon="5.15732">
        <ele>150.58</ele>
        <time>2012-09-10T11:27:21Z</time>
      </trkpt>
      <trkpt lat="43.76527" lon="5.15735">
        <ele>152.51</ele>
        <time>2012-09-10T11:27:31Z</time>
      </trkpt>
      <trkpt lat="43.76534" lon="5.15741">
        <ele>153.47</ele>
        <time>2012-09-10T11:27:45Z</time>
      </trkpt>
      <trkpt lat="43.76539" lon="5.15748">
        <ele>154.43</ele>
        <time>2012-09-10T11:28:03Z</time>
      </trkpt>
      <trkpt lat="43.76529" lon="5.15723">
        <ele>152.51</ele>
        <time>2012-09-10T11:28:22Z</time>
      </trkpt>
      <trkpt lat="43.76537" lon="5.1572">
        <ele>150.58</ele>
        <time>2012-09-10T11:28:34Z</time>
      </trkpt>
      <trkpt lat="43.7654" lon="5.15718">
        <ele>150.58</ele>
        <time>2012-09-10T11:28:53Z</time>
      </trkpt>
      <trkpt lat="43.7654" lon="5.15718">
        <ele>150.58</ele>
        <time>2012-09-10T11:29:07Z</time>
      </trkpt>
      <trkpt lat="43.76541" lon="5.15718">
        <ele>150.58</ele>
        <time>2012-09-10T11:29:27Z</time>
      </trkpt>
      <trkpt lat="43.76542" lon="5.15716">
        <ele>150.58</ele>
        <time>2012-09-10T11:29:47Z</time>
      </trkpt>
      <trkpt lat="43.76543" lon="5.15716">
        <ele>151.06</ele>
        <time>2012-09-10T11:30:10Z</time>
      </trkpt>
      <trkpt lat="43.76546" lon="5.15717">
        <ele>151.06</ele>
        <time>2012-09-10T11:30:18Z</time>
      </trkpt>
      <trkpt lat="43.76551" lon="5.1572">
        <ele>151.54</ele>
        <time>2012-09-10T11:30:34Z</time>
      </trkpt>
      <trkpt lat="43.76554" lon="5.1572">
        <ele>151.54</ele>
        <time>2012-09-10T11:30:55Z</time>
      </trkpt>
      <trkpt lat="43.76555" lon="5.15721">
        <ele>151.54</ele>
        <time>2012-09-10T11:31:17Z</time>
      </trkpt>
      <trkpt lat="43.76558" lon="5.1572">
        <ele>151.54</ele>
        <time>2012-09-10T11:31:28Z</time>
      </trkpt>
      <trkpt lat="43.76569" lon="5.1572">
        <ele>152.03</ele>
        <time>2012-09-10T11:31:44Z</time>
      </trkpt>
      <trkpt lat="43.76575" lon="5.15714">
        <ele>153.95</ele>
        <time>2012-09-10T11:31:56Z</time>
      </trkpt>
      <trkpt lat="43.76579" lon="5.15714">
        <ele>154.91</ele>
        <time>2012-09-10T11:32:10Z</time>
      </trkpt>
      <trkpt lat="43.76582" lon="5.15705">
        <ele>156.35</ele>
        <time>2012-09-10T11:32:28Z</time>
      </trkpt>
      <trkpt lat="43.76579" lon="5.15723">
        <ele>155.39</ele>
        <time>2012-09-10T11:33:03Z</time>
      </trkpt>
      <trkpt lat="43.76583" lon="5.15722">
        <ele>153.47</ele>
        <time>2012-09-10T11:33:16Z</time>
      </trkpt>
      <trkpt lat="43.76585" lon="5.15725">
        <ele>153.47</ele>
        <time>2012-09-10T11:33:22Z</time>
      </trkpt>
      <trkpt lat="43.76593" lon="5.15735">
        <ele>153.95</ele>
        <time>2012-09-10T11:33:38Z</time>
      </trkpt>
      <trkpt lat="43.76589" lon="5.15746">
        <ele>154.91</ele>
        <time>2012-09-10T11:33:57Z</time>
      </trkpt>
      <trkpt lat="43.76636" lon="5.15724">
        <ele>154.91</ele>
        <time>2012-09-10T11:34:22Z</time>
      </trkpt>
      <trkpt lat="43.76646" lon="5.15714">
        <ele>154.43</ele>
        <time>2012-09-10T11:34:42Z</time>
      </trkpt>
      <trkpt lat="43.76648" lon="5.15718">
        <ele>154.91</ele>
        <time>2012-09-10T11:34:56Z</time>
      </trkpt>
      <trkpt lat="43.76644" lon="5.15727">
        <ele>154.91</ele>
        <time>2012-09-10T11:35:05Z</time>
      </trkpt>
      <trkpt lat="43.76621" lon="5.15755">
        <ele>155.87</ele>
        <time>2012-09-10T11:35:16Z</time>
      </trkpt>
      <trkpt lat="43.76616" lon="5.1576">
        <ele>158.27</ele>
        <time>2012-09-10T11:35:27Z</time>
      </trkpt>
      <trkpt lat="43.76617" lon="5.15764">
        <ele>159.72</ele>
        <time>2012-09-10T11:35:37Z</time>
      </trkpt>
      <trkpt lat="43.7663" lon="5.15758">
        <ele>162.12</ele>
        <time>2012-09-10T11:35:56Z</time>
      </trkpt>
      <trkpt lat="43.76633" lon="5.15757">
        <ele>159.72</ele>
        <time>2012-09-10T11:36:25Z</time>
      </trkpt>
      <trkpt lat="43.76638" lon="5.15752">
        <ele>158.27</ele>
        <time>2012-09-10T11:36:44Z</time>
      </trkpt>
      <trkpt lat="43.76623" lon="5.15759">
        <ele>156.35</ele>
        <time>2012-09-10T11:36:58Z</time>
      </trkpt>
      <trkpt lat="43.76621" lon="5.15759">
        <ele>155.39</ele>
        <time>2012-09-10T11:37:17Z</time>
      </trkpt>
      <trkpt lat="43.76622" lon="5.15759">
        <ele>154.91</ele>
        <time>2012-09-10T11:37:18Z</time>
      </trkpt>
      <trkpt lat="43.76634" lon="5.15748">
        <ele>156.83</ele>
        <time>2012-09-10T11:37:35Z</time>
      </trkpt>
      <trkpt lat="43.76637" lon="5.15759">
        <ele>159.24</ele>
        <time>2012-09-10T11:37:44Z</time>
      </trkpt>
      <trkpt lat="43.76643" lon="5.1577">
        <ele>160.2</ele>
        <time>2012-09-10T11:37:57Z</time>
      </trkpt>
      <trkpt lat="43.76643" lon="5.1577">
        <ele>160.68</ele>
        <time>2012-09-10T11:37:58Z</time>
      </trkpt>
      <trkpt lat="43.76643" lon="5.1577">
        <ele>160.68</ele>
        <time>2012-09-10T11:38:00Z</time>
      </trkpt>
      <trkpt lat="43.76653" lon="5.15771">
        <ele>160.2</ele>
        <time>2012-09-10T11:38:15Z</time>
      </trkpt>
      <trkpt lat="43.76654" lon="5.15776">
        <ele>160.2</ele>
        <time>2012-09-10T11:38:29Z</time>
      </trkpt>
      <trkpt lat="43.76659" lon="5.15786">
        <ele>160.2</ele>
        <time>2012-09-10T11:38:43Z</time>
      </trkpt>
      <trkpt lat="43.7666" lon="5.15786">
        <ele>160.68</ele>
        <time>2012-09-10T11:38:44Z</time>
      </trkpt>
      <trkpt lat="43.76672" lon="5.15799">
        <ele>161.16</ele>
        <time>2012-09-10T11:38:57Z</time>
      </trkpt>
      <trkpt lat="43.76694" lon="5.15801">
        <ele>161.64</ele>
        <time>2012-09-10T11:39:10Z</time>
      </trkpt>
      <trkpt lat="43.7671" lon="5.15811">
        <ele>162.12</ele>
        <time>2012-09-10T11:39:22Z</time>
      </trkpt>
      <trkpt lat="43.76702" lon="5.1583">
        <ele>165</ele>
        <time>2012-09-10T11:39:36Z</time>
      </trkpt>
      <trkpt lat="43.76702" lon="5.15831">
        <ele>164.52</ele>
        <time>2012-09-10T11:39:37Z</time>
      </trkpt>
      <trkpt lat="43.76708" lon="5.15834">
        <ele>165</ele>
        <time>2012-09-10T11:39:43Z</time>
      </trkpt>
      <trkpt lat="43.76719" lon="5.15837">
        <ele>165.96</ele>
        <time>2012-09-10T11:39:56Z</time>
      </trkpt>
      <trkpt lat="43.76722" lon="5.15839">
        <ele>165.96</ele>
        <time>2012-09-10T11:40:11Z</time>
      </trkpt>
      <trkpt lat="43.7673" lon="5.15835">
        <ele>165.96</ele>
        <time>2012-09-10T11:40:20Z</time>
      </trkpt>
      <trkpt lat="43.7674" lon="5.15835">
        <ele>167.89</ele>
        <time>2012-09-10T11:40:33Z</time>
      </trkpt>
      <trkpt lat="43.76746" lon="5.15837">
        <ele>167.89</ele>
        <time>2012-09-10T11:40:47Z</time>
      </trkpt>
      <trkpt lat="43.76753" lon="5.15838">
        <ele>169.33</ele>
        <time>2012-09-10T11:41:00Z</time>
      </trkpt>
      <trkpt lat="43.76759" lon="5.1584">
        <ele>170.77</ele>
        <time>2012-09-10T11:41:11Z</time>
      </trkpt>
      <trkpt lat="43.76764" lon="5.15843">
        <ele>171.25</ele>
        <time>2012-09-10T11:41:26Z</time>
      </trkpt>
      <trkpt lat="43.76765" lon="5.15847">
        <ele>171.25</ele>
        <time>2012-09-10T11:41:41Z</time>
      </trkpt>
      <trkpt lat="43.76758" lon="5.15852">
        <ele>171.73</ele>
        <time>2012-09-10T11:41:52Z</time>
      </trkpt>
      <trkpt lat="43.76718" lon="5.15851">
        <ele>174.62</ele>
        <time>2012-09-10T11:42:20Z</time>
      </trkpt>
      <trkpt lat="43.76935" lon="5.15854">
        <ele>183.75</ele>
        <time>2012-09-10T11:47:03Z</time>
      </trkpt>
      <trkpt lat="43.76946" lon="5.1586">
        <ele>185.19</ele>
        <time>2012-09-10T11:47:26Z</time>
      </trkpt>
      <trkpt lat="43.76951" lon="5.15861">
        <ele>184.23</ele>
        <time>2012-09-10T11:47:34Z</time>
      </trkpt>
      <trkpt lat="43.76957" lon="5.15859">
        <ele>184.71</ele>
        <time>2012-09-10T11:47:37Z</time>
      </trkpt>
      <trkpt lat="43.76973" lon="5.15825">
        <ele>186.63</ele>
        <time>2012-09-10T11:47:54Z</time>
      </trkpt>
      <trkpt lat="43.76986" lon="5.15848">
        <ele>189.52</ele>
        <time>2012-09-10T11:48:12Z</time>
      </trkpt>
      <trkpt lat="43.76994" lon="5.15846">
        <ele>191.44</ele>
        <time>2012-09-10T11:48:28Z</time>
      </trkpt>
      <trkpt lat="43.77002" lon="5.15848">
        <ele>191.44</ele>
        <time>2012-09-10T11:48:53Z</time>
      </trkpt>
      <trkpt lat="43.77002" lon="5.15848">
        <ele>191.92</ele>
        <time>2012-09-10T11:48:55Z</time>
      </trkpt>
      <trkpt lat="43.77007" lon="5.15848">
        <ele>192.4</ele>
        <time>2012-09-10T11:49:05Z</time>
      </trkpt>
      <trkpt lat="43.77013" lon="5.1585">
        <ele>192.4</ele>
        <time>2012-09-10T11:49:19Z</time>
      </trkpt>
      <trkpt lat="43.7702" lon="5.15842">
        <ele>191.92</ele>
        <time>2012-09-10T11:49:37Z</time>
      </trkpt>
      <trkpt lat="43.77017" lon="5.15845">
        <ele>191.92</ele>
        <time>2012-09-10T11:49:56Z</time>
      </trkpt>
      <trkpt lat="43.77017" lon="5.15847">
        <ele>191.92</ele>
        <time>2012-09-10T11:50:16Z</time>
      </trkpt>
      <trkpt lat="43.77063" lon="5.15868">
        <ele>202.01</ele>
        <time>2012-09-10T11:51:46Z</time>
      </trkpt>
      <trkpt lat="43.7707" lon="5.15871">
        <ele>203.46</ele>
        <time>2012-09-10T11:52:02Z</time>
      </trkpt>
      <trkpt lat="43.7707" lon="5.1588">
        <ele>204.9</ele>
        <time>2012-09-10T11:52:32Z</time>
      </trkpt>
      <trkpt lat="43.77085" lon="5.15866">
        <ele>204.42</ele>
        <time>2012-09-10T11:53:00Z</time>
      </trkpt>
      <trkpt lat="43.77088" lon="5.15848">
        <ele>204.9</ele>
        <time>2012-09-10T11:53:32Z</time>
      </trkpt>
      <trkpt lat="43.77087" lon="5.15846">
        <ele>203.46</ele>
        <time>2012-09-10T11:53:46Z</time>
      </trkpt>
      <trkpt lat="43.77083" lon="5.15854">
        <ele>204.42</ele>
        <time>2012-09-10T11:54:02Z</time>
      </trkpt>
      <trkpt lat="43.77081" lon="5.15856">
        <ele>207.3</ele>
        <time>2012-09-10T11:54:22Z</time>
      </trkpt>
      <trkpt lat="43.77069" lon="5.15899">
        <ele>211.15</ele>
        <time>2012-09-10T11:55:01Z</time>
      </trkpt>
      <trkpt lat="43.77064" lon="5.15908">
        <ele>209.7</ele>
        <time>2012-09-10T11:55:23Z</time>
      </trkpt>
      <trkpt lat="43.77061" lon="5.1591">
        <ele>206.82</ele>
        <time>2012-09-10T11:55:43Z</time>
      </trkpt>
      <trkpt lat="43.77066" lon="5.15907">
        <ele>204.9</ele>
        <time>2012-09-10T11:56:00Z</time>
      </trkpt>
      <trkpt lat="43.77084" lon="5.15894">
        <ele>205.38</ele>
        <time>2012-09-10T11:56:16Z</time>
      </trkpt>
      <trkpt lat="43.77089" lon="5.15896">
        <ele>205.38</ele>
        <time>2012-09-10T11:56:27Z</time>
      </trkpt>
      <trkpt lat="43.771" lon="5.15903">
        <ele>205.38</ele>
        <time>2012-09-10T11:56:44Z</time>
      </trkpt>
      <trkpt lat="43.77109" lon="5.15899">
        <ele>205.86</ele>
        <time>2012-09-10T11:57:00Z</time>
      </trkpt>
      <trkpt lat="43.77123" lon="5.1589">
        <ele>205.86</ele>
        <time>2012-09-10T11:57:15Z</time>
      </trkpt>
      <trkpt lat="43.77142" lon="5.15887">
        <ele>206.82</ele>
        <time>2012-09-10T11:57:34Z</time>
      </trkpt>
      <trkpt lat="43.77154" lon="5.15882">
        <ele>206.82</ele>
        <time>2012-09-10T11:57:49Z</time>
      </trkpt>
      <trkpt lat="43.77157" lon="5.15879">
        <ele>207.3</ele>
        <time>2012-09-10T11:57:52Z</time>
      </trkpt>
      <trkpt lat="43.77161" lon="5.15879">
        <ele>206.82</ele>
        <time>2012-09-10T11:57:56Z</time>
      </trkpt>
      <trkpt lat="43.77179" lon="5.15888">
        <ele>207.3</ele>
        <time>2012-09-10T11:58:17Z</time>
      </trkpt>
      <trkpt lat="43.77202" lon="5.15866">
        <ele>208.74</ele>
        <time>2012-09-10T11:58:37Z</time>
      </trkpt>
      <trkpt lat="43.77208" lon="5.15855">
        <ele>209.7</ele>
        <time>2012-09-10T11:58:51Z</time>
      </trkpt>
      <trkpt lat="43.77218" lon="5.15839">
        <ele>209.7</ele>
        <time>2012-09-10T11:59:07Z</time>
      </trkpt>
      <trkpt lat="43.77229" lon="5.15828">
        <ele>209.7</ele>
        <time>2012-09-10T11:59:21Z</time>
      </trkpt>
      <trkpt lat="43.77234" lon="5.15811">
        <ele>211.15</ele>
        <time>2012-09-10T11:59:32Z</time>
      </trkpt>
      <trkpt lat="43.77239" lon="5.158">
        <ele>211.63</ele>
        <time>2012-09-10T11:59:45Z</time>
      </trkpt>
      <trkpt lat="43.77245" lon="5.15796">
        <ele>212.59</ele>
        <time>2012-09-10T12:00:00Z</time>
      </trkpt>
      <trkpt lat="43.7725" lon="5.15794">
        <ele>212.59</ele>
        <time>2012-09-10T12:00:14Z</time>
      </trkpt>
      <trkpt lat="43.77255" lon="5.15792">
        <ele>213.07</ele>
        <time>2012-09-10T12:00:29Z</time>
      </trkpt>
      <trkpt lat="43.77265" lon="5.15791">
        <ele>213.55</ele>
        <time>2012-09-10T12:00:41Z</time>
      </trkpt>
      <trkpt lat="43.77279" lon="5.15788">
        <ele>213.55</ele>
        <time>2012-09-10T12:00:48Z</time>
      </trkpt>
      <trkpt lat="43.77284" lon="5.15789">
        <ele>213.55</ele>
        <time>2012-09-10T12:00:51Z</time>
      </trkpt>
      <trkpt lat="43.77301" lon="5.1579">
        <ele>214.03</ele>
        <time>2012-09-10T12:01:00Z</time>
      </trkpt>
      <trkpt lat="43.77321" lon="5.15796">
        <ele>214.03</ele>
        <time>2012-09-10T12:01:14Z</time>
      </trkpt>
      <trkpt lat="43.77326" lon="5.15796">
        <ele>214.51</ele>
        <time>2012-09-10T12:01:23Z</time>
      </trkpt>
      <trkpt lat="43.77338" lon="5.15799">
        <ele>214.99</ele>
        <time>2012-09-10T12:01:34Z</time>
      </trkpt>
      <trkpt lat="43.77341" lon="5.15798">
        <ele>215.95</ele>
        <time>2012-09-10T12:01:38Z</time>
      </trkpt>
      <trkpt lat="43.77345" lon="5.15797">
        <ele>215.95</ele>
        <time>2012-09-10T12:01:40Z</time>
      </trkpt>
      <trkpt lat="43.77359" lon="5.15795">
        <ele>215.95</ele>
        <time>2012-09-10T12:01:52Z</time>
      </trkpt>
      <trkpt lat="43.77375" lon="5.15794">
        <ele>216.91</ele>
        <time>2012-09-10T12:02:05Z</time>
      </trkpt>
      <trkpt lat="43.77392" lon="5.15792">
        <ele>216.91</ele>
        <time>2012-09-10T12:02:19Z</time>
      </trkpt>
      <trkpt lat="43.77404" lon="5.15792">
        <ele>216.91</ele>
        <time>2012-09-10T12:02:32Z</time>
      </trkpt>
      <trkpt lat="43.77416" lon="5.15799">
        <ele>217.88</ele>
        <time>2012-09-10T12:02:44Z</time>
      </trkpt>
      <trkpt lat="43.77421" lon="5.15799">
        <ele>217.88</ele>
        <time>2012-09-10T12:02:54Z</time>
      </trkpt>
      <trkpt lat="43.77433" lon="5.15801">
        <ele>218.36</ele>
        <time>2012-09-10T12:03:03Z</time>
      </trkpt>
      <trkpt lat="43.77448" lon="5.15803">
        <ele>220.28</ele>
        <time>2012-09-10T12:03:17Z</time>
      </trkpt>
      <trkpt lat="43.77453" lon="5.15804">
        <ele>220.76</ele>
        <time>2012-09-10T12:03:29Z</time>
      </trkpt>
      <trkpt lat="43.77457" lon="5.15804">
        <ele>219.32</ele>
        <time>2012-09-10T12:03:41Z</time>
      </trkpt>
      <trkpt lat="43.77459" lon="5.15807">
        <ele>218.84</ele>
        <time>2012-09-10T12:04:07Z</time>
      </trkpt>
      <trkpt lat="43.77459" lon="5.15808">
        <ele>218.84</ele>
        <time>2012-09-10T12:04:33Z</time>
      </trkpt>
      <trkpt lat="43.77459" lon="5.15809">
        <ele>218.36</ele>
        <time>2012-09-10T12:04:54Z</time>
      </trkpt>
      <trkpt lat="43.77459" lon="5.15809">
        <ele>218.36</ele>
        <time>2012-09-10T12:05:34Z</time>
      </trkpt>
      <trkpt lat="43.7746" lon="5.1581">
        <ele>218.36</ele>
        <time>2012-09-10T12:06:06Z</time>
      </trkpt>
      <trkpt lat="43.7746" lon="5.15809">
        <ele>218.36</ele>
        <time>2012-09-10T12:06:35Z</time>
      </trkpt>
      <trkpt lat="43.7746" lon="5.1581">
        <ele>218.84</ele>
        <time>2012-09-10T12:07:02Z</time>
      </trkpt>
      <trkpt lat="43.7746" lon="5.1581">
        <ele>218.84</ele>
        <time>2012-09-10T12:07:30Z</time>
      </trkpt>
      <trkpt lat="43.7746" lon="5.1581">
        <ele>218.84</ele>
        <time>2012-09-10T12:08:03Z</time>
      </trkpt>
      <trkpt lat="43.7746" lon="5.1581">
        <ele>218.36</ele>
        <time>2012-09-10T12:08:37Z</time>
      </trkpt>
      <trkpt lat="43.7746" lon="5.1581">
        <ele>218.36</ele>
        <time>2012-09-10T12:09:08Z</time>
      </trkpt>
      <trkpt lat="43.7746" lon="5.15809">
        <ele>218.36</ele>
        <time>2012-09-10T12:09:39Z</time>
      </trkpt>
      <trkpt lat="43.7746" lon="5.1581">
        <ele>218.84</ele>
        <time>2012-09-10T12:10:08Z</time>
      </trkpt>
      <trkpt lat="43.7746" lon="5.15811">
        <ele>218.84</ele>
        <time>2012-09-10T12:10:47Z</time>
      </trkpt>
      <trkpt lat="43.7746" lon="5.15811">
        <ele>219.32</ele>
        <time>2012-09-10T12:11:23Z</time>
      </trkpt>
      <trkpt lat="43.77459" lon="5.15811">
        <ele>219.32</ele>
        <time>2012-09-10T12:12:01Z</time>
      </trkpt>
      <trkpt lat="43.77459" lon="5.15811">
        <ele>218.84</ele>
        <time>2012-09-10T12:12:32Z</time>
      </trkpt>
      <trkpt lat="43.77459" lon="5.15811">
        <ele>219.32</ele>
        <time>2012-09-10T12:12:54Z</time>
      </trkpt>
      <trkpt lat="43.77459" lon="5.1581">
        <ele>218.84</ele>
        <time>2012-09-10T12:13:24Z</time>
      </trkpt>
      <trkpt lat="43.77459" lon="5.1581">
        <ele>219.8</ele>
        <time>2012-09-10T12:13:50Z</time>
      </trkpt>
      <trkpt lat="43.77459" lon="5.15809">
        <ele>218.84</ele>
        <time>2012-09-10T12:14:29Z</time>
      </trkpt>
      <trkpt lat="43.77459" lon="5.1581">
        <ele>219.32</ele>
        <time>2012-09-10T12:15:14Z</time>
      </trkpt>
      <trkpt lat="43.77459" lon="5.15811">
        <ele>219.32</ele>
        <time>2012-09-10T12:15:51Z</time>
      </trkpt>
      <trkpt lat="43.77459" lon="5.1581">
        <ele>218.84</ele>
        <time>2012-09-10T12:16:27Z</time>
      </trkpt>
      <trkpt lat="43.77459" lon="5.15803">
        <ele>219.32</ele>
        <time>2012-09-10T12:17:00Z</time>
      </trkpt>
      <trkpt lat="43.7746" lon="5.15802">
        <ele>218.84</ele>
        <time>2012-09-10T12:17:25Z</time>
      </trkpt>
      <trkpt lat="43.77458" lon="5.15807">
        <ele>218.84</ele>
        <time>2012-09-10T12:17:54Z</time>
      </trkpt>
      <trkpt lat="43.77459" lon="5.1581">
        <ele>218.84</ele>
        <time>2012-09-10T12:18:32Z</time>
      </trkpt>
      <trkpt lat="43.77459" lon="5.15809">
        <ele>219.8</ele>
        <time>2012-09-10T12:18:58Z</time>
      </trkpt>
      <trkpt lat="43.77459" lon="5.15807">
        <ele>220.28</ele>
        <time>2012-09-10T12:19:14Z</time>
      </trkpt>
      <trkpt lat="43.77459" lon="5.15808">
        <ele>219.8</ele>
        <time>2012-09-10T12:19:36Z</time>
      </trkpt>
      <trkpt lat="43.77461" lon="5.1581">
        <ele>220.28</ele>
        <time>2012-09-10T12:20:03Z</time>
      </trkpt>
      <trkpt lat="43.77461" lon="5.15811">
        <ele>219.8</ele>
        <time>2012-09-10T12:20:25Z</time>
      </trkpt>
      <trkpt lat="43.7746" lon="5.15811">
        <ele>219.8</ele>
        <time>2012-09-10T12:20:53Z</time>
      </trkpt>
      <trkpt lat="43.7746" lon="5.15812">
        <ele>219.8</ele>
        <time>2012-09-10T12:21:17Z</time>
      </trkpt>
      <trkpt lat="43.77461" lon="5.15814">
        <ele>220.76</ele>
        <time>2012-09-10T12:21:45Z</time>
      </trkpt>
      <trkpt lat="43.77461" lon="5.15811">
        <ele>220.76</ele>
        <time>2012-09-10T12:22:01Z</time>
      </trkpt>
      <trkpt lat="43.77462" lon="5.15809">
        <ele>222.2</ele>
        <time>2012-09-10T12:22:14Z</time>
      </trkpt>
      <trkpt lat="43.77464" lon="5.15805">
        <ele>222.68</ele>
        <time>2012-09-10T12:22:33Z</time>
      </trkpt>
      <trkpt lat="43.77471" lon="5.15804">
        <ele>224.12</ele>
        <time>2012-09-10T12:22:44Z</time>
      </trkpt>
      <trkpt lat="43.77483" lon="5.15802">
        <ele>224.61</ele>
        <time>2012-09-10T12:22:57Z</time>
      </trkpt>
      <trkpt lat="43.77494" lon="5.15792">
        <ele>225.57</ele>
        <time>2012-09-10T12:23:09Z</time>
      </trkpt>
      <trkpt lat="43.77502" lon="5.15782">
        <ele>226.05</ele>
        <time>2012-09-10T12:23:21Z</time>
      </trkpt>
      <trkpt lat="43.7751" lon="5.1577">
        <ele>227.01</ele>
        <time>2012-09-10T12:23:31Z</time>
      </trkpt>
      <trkpt lat="43.77524" lon="5.15758">
        <ele>227.49</ele>
        <time>2012-09-10T12:23:46Z</time>
      </trkpt>
      <trkpt lat="43.77536" lon="5.15758">
        <ele>228.93</ele>
        <time>2012-09-10T12:24:01Z</time>
      </trkpt>
      <trkpt lat="43.77544" lon="5.15759">
        <ele>229.89</ele>
        <time>2012-09-10T12:24:16Z</time>
      </trkpt>
      <trkpt lat="43.77554" lon="5.15763">
        <ele>231.33</ele>
        <time>2012-09-10T12:24:29Z</time>
      </trkpt>
      <trkpt lat="43.77566" lon="5.15768">
        <ele>232.78</ele>
        <time>2012-09-10T12:24:43Z</time>
      </trkpt>
      <trkpt lat="43.77578" lon="5.15783">
        <ele>233.26</ele>
        <time>2012-09-10T12:24:56Z</time>
      </trkpt>
      <trkpt lat="43.77589" lon="5.1579">
        <ele>233.74</ele>
        <time>2012-09-10T12:25:10Z</time>
      </trkpt>
      <trkpt lat="43.77601" lon="5.15791">
        <ele>234.22</ele>
        <time>2012-09-10T12:25:23Z</time>
      </trkpt>
      <trkpt lat="43.77616" lon="5.15789">
        <ele>234.22</ele>
        <time>2012-09-10T12:25:37Z</time>
      </trkpt>
      <trkpt lat="43.77622" lon="5.1579">
        <ele>234.22</ele>
        <time>2012-09-10T12:25:50Z</time>
      </trkpt>
      <trkpt lat="43.77632" lon="5.15793">
        <ele>234.7</ele>
        <time>2012-09-10T12:26:03Z</time>
      </trkpt>
      <trkpt lat="43.7764" lon="5.15801">
        <ele>234.7</ele>
        <time>2012-09-10T12:26:13Z</time>
      </trkpt>
      <trkpt lat="43.77657" lon="5.15807">
        <ele>235.66</ele>
        <time>2012-09-10T12:26:27Z</time>
      </trkpt>
      <trkpt lat="43.77663" lon="5.1581">
        <ele>235.66</ele>
        <time>2012-09-10T12:26:33Z</time>
      </trkpt>
      <trkpt lat="43.77668" lon="5.15814">
        <ele>235.18</ele>
        <time>2012-09-10T12:26:37Z</time>
      </trkpt>
      <trkpt lat="43.7768" lon="5.15821">
        <ele>235.66</ele>
        <time>2012-09-10T12:26:50Z</time>
      </trkpt>
      <trkpt lat="43.77685" lon="5.15827">
        <ele>235.66</ele>
        <time>2012-09-10T12:27:02Z</time>
      </trkpt>
      <trkpt lat="43.77695" lon="5.1583">
        <ele>236.14</ele>
        <time>2012-09-10T12:27:13Z</time>
      </trkpt>
      <trkpt lat="43.77703" lon="5.15828">
        <ele>236.62</ele>
        <time>2012-09-10T12:27:19Z</time>
      </trkpt>
      <trkpt lat="43.77709" lon="5.15824">
        <ele>236.62</ele>
        <time>2012-09-10T12:27:23Z</time>
      </trkpt>
      <trkpt lat="43.77723" lon="5.15823">
        <ele>237.1</ele>
        <time>2012-09-10T12:27:30Z</time>
      </trkpt>
      <trkpt lat="43.77727" lon="5.1582">
        <ele>237.1</ele>
        <time>2012-09-10T12:27:33Z</time>
      </trkpt>
      <trkpt lat="43.77745" lon="5.15813">
        <ele>236.62</ele>
        <time>2012-09-10T12:27:46Z</time>
      </trkpt>
      <trkpt lat="43.77756" lon="5.15803">
        <ele>237.1</ele>
        <time>2012-09-10T12:27:57Z</time>
      </trkpt>
      <trkpt lat="43.77765" lon="5.15797">
        <ele>237.1</ele>
        <time>2012-09-10T12:28:07Z</time>
      </trkpt>
      <trkpt lat="43.7778" lon="5.15794">
        <ele>238.06</ele>
        <time>2012-09-10T12:28:21Z</time>
      </trkpt>
      <trkpt lat="43.77791" lon="5.15785">
        <ele>238.06</ele>
        <time>2012-09-10T12:28:35Z</time>
      </trkpt>
      <trkpt lat="43.77801" lon="5.15779">
        <ele>239.02</ele>
        <time>2012-09-10T12:28:47Z</time>
      </trkpt>
      <trkpt lat="43.77805" lon="5.15779">
        <ele>239.51</ele>
        <time>2012-09-10T12:29:00Z</time>
      </trkpt>
      <trkpt lat="43.77806" lon="5.15781">
        <ele>239.02</ele>
        <time>2012-09-10T12:29:03Z</time>
      </trkpt>
      <trkpt lat="43.7781" lon="5.15781">
        <ele>239.51</ele>
        <time>2012-09-10T12:29:08Z</time>
      </trkpt>
      <trkpt lat="43.77817" lon="5.15772">
        <ele>240.47</ele>
        <time>2012-09-10T12:29:20Z</time>
      </trkpt>
      <trkpt lat="43.77826" lon="5.15766">
        <ele>239.51</ele>
        <time>2012-09-10T12:29:33Z</time>
      </trkpt>
      <trkpt lat="43.77827" lon="5.15765">
        <ele>240.47</ele>
        <time>2012-09-10T12:29:43Z</time>
      </trkpt>
      <trkpt lat="43.77827" lon="5.15765">
        <ele>239.99</ele>
        <time>2012-09-10T12:29:45Z</time>
      </trkpt>
      <trkpt lat="43.77826" lon="5.15767">
        <ele>240.95</ele>
        <time>2012-09-10T12:30:07Z</time>
      </trkpt>
      <trkpt lat="43.77824" lon="5.15768">
        <ele>239.99</ele>
        <time>2012-09-10T12:30:11Z</time>
      </trkpt>
      <trkpt lat="43.77818" lon="5.15771">
        <ele>239.99</ele>
        <time>2012-09-10T12:30:17Z</time>
      </trkpt>
      <trkpt lat="43.77814" lon="5.15766">
        <ele>240.47</ele>
        <time>2012-09-10T12:30:28Z</time>
      </trkpt>
      <trkpt lat="43.77813" lon="5.15761">
        <ele>241.43</ele>
        <time>2012-09-10T12:30:41Z</time>
      </trkpt>
      <trkpt lat="43.77814" lon="5.15755">
        <ele>241.91</ele>
        <time>2012-09-10T12:31:01Z</time>
      </trkpt>
      <trkpt lat="43.7782" lon="5.15739">
        <ele>243.35</ele>
        <time>2012-09-10T12:31:14Z</time>
      </trkpt>
      <trkpt lat="43.77825" lon="5.15732">
        <ele>244.31</ele>
        <time>2012-09-10T12:31:21Z</time>
      </trkpt>
      <trkpt lat="43.77832" lon="5.15721">
        <ele>246.72</ele>
        <time>2012-09-10T12:31:35Z</time>
      </trkpt>
      <trkpt lat="43.77834" lon="5.15715">
        <ele>246.72</ele>
        <time>2012-09-10T12:31:48Z</time>
      </trkpt>
      <trkpt lat="43.77835" lon="5.15714">
        <ele>248.64</ele>
        <time>2012-09-10T12:31:56Z</time>
      </trkpt>
      <trkpt lat="43.77835" lon="5.15714">
        <ele>248.64</ele>
        <time>2012-09-10T12:32:00Z</time>
      </trkpt>
      <trkpt lat="43.77836" lon="5.15713">
        <ele>244.79</ele>
        <time>2012-09-10T12:32:08Z</time>
      </trkpt>
      <trkpt lat="43.77836" lon="5.15712">
        <ele>250.56</ele>
        <time>2012-09-10T12:32:09Z</time>
      </trkpt>
      <trkpt lat="43.77835" lon="5.15712">
        <ele>247.2</ele>
        <time>2012-09-10T12:32:10Z</time>
      </trkpt>
      <trkpt lat="43.77835" lon="5.15703">
        <ele>248.16</ele>
        <time>2012-09-10T12:32:25Z</time>
      </trkpt>
      <trkpt lat="43.77836" lon="5.157">
        <ele>249.12</ele>
        <time>2012-09-10T12:32:42Z</time>
      </trkpt>
      <trkpt lat="43.77836" lon="5.15702">
        <ele>248.64</ele>
        <time>2012-09-10T12:32:51Z</time>
      </trkpt>
      <trkpt lat="43.77834" lon="5.1571">
        <ele>247.2</ele>
        <time>2012-09-10T12:32:57Z</time>
      </trkpt>
      <trkpt lat="43.77829" lon="5.15722">
        <ele>245.27</ele>
        <time>2012-09-10T12:33:11Z</time>
      </trkpt>
      <trkpt lat="43.77826" lon="5.15727">
        <ele>243.35</ele>
        <time>2012-09-10T12:33:16Z</time>
      </trkpt>
      <trkpt lat="43.7782" lon="5.15733">
        <ele>242.39</ele>
        <time>2012-09-10T12:33:21Z</time>
      </trkpt>
      <trkpt lat="43.77813" lon="5.15752">
        <ele>240.47</ele>
        <time>2012-09-10T12:33:35Z</time>
      </trkpt>
      <trkpt lat="43.77813" lon="5.15757">
        <ele>239.99</ele>
        <time>2012-09-10T12:33:40Z</time>
      </trkpt>
      <trkpt lat="43.77813" lon="5.15771">
        <ele>239.02</ele>
        <time>2012-09-10T12:33:53Z</time>
      </trkpt>
      <trkpt lat="43.77813" lon="5.15773">
        <ele>238.54</ele>
        <time>2012-09-10T12:34:07Z</time>
      </trkpt>
      <trkpt lat="43.77813" lon="5.15774">
        <ele>238.54</ele>
        <time>2012-09-10T12:34:28Z</time>
      </trkpt>
      <trkpt lat="43.77809" lon="5.15783">
        <ele>238.06</ele>
        <time>2012-09-10T12:34:35Z</time>
      </trkpt>
      <trkpt lat="43.77798" lon="5.15785">
        <ele>237.1</ele>
        <time>2012-09-10T12:34:49Z</time>
      </trkpt>
      <trkpt lat="43.77791" lon="5.15792">
        <ele>236.14</ele>
        <time>2012-09-10T12:34:58Z</time>
      </trkpt>
      <trkpt lat="43.77778" lon="5.15801">
        <ele>235.18</ele>
        <time>2012-09-10T12:35:13Z</time>
      </trkpt>
      <trkpt lat="43.77765" lon="5.15802">
        <ele>234.7</ele>
        <time>2012-09-10T12:35:28Z</time>
      </trkpt>
      <trkpt lat="43.77763" lon="5.15803">
        <ele>234.22</ele>
        <time>2012-09-10T12:35:30Z</time>
      </trkpt>
      <trkpt lat="43.77754" lon="5.15807">
        <ele>234.7</ele>
        <time>2012-09-10T12:35:37Z</time>
      </trkpt>
      <trkpt lat="43.77748" lon="5.15813">
        <ele>233.74</ele>
        <time>2012-09-10T12:35:43Z</time>
      </trkpt>
      <trkpt lat="43.77746" lon="5.15815">
        <ele>233.26</ele>
        <time>2012-09-10T12:35:46Z</time>
      </trkpt>
      <trkpt lat="43.77736" lon="5.15823">
        <ele>233.26</ele>
        <time>2012-09-10T12:35:55Z</time>
      </trkpt>
      <trkpt lat="43.77724" lon="5.15831">
        <ele>232.3</ele>
        <time>2012-09-10T12:36:08Z</time>
      </trkpt>
      <trkpt lat="43.77709" lon="5.15836">
        <ele>232.3</ele>
        <time>2012-09-10T12:36:20Z</time>
      </trkpt>
      <trkpt lat="43.77704" lon="5.15836">
        <ele>231.81</ele>
        <time>2012-09-10T12:36:25Z</time>
      </trkpt>
      <trkpt lat="43.77696" lon="5.15831">
        <ele>230.85</ele>
        <time>2012-09-10T12:36:33Z</time>
      </trkpt>
      <trkpt lat="43.77683" lon="5.15826">
        <ele>229.89</ele>
        <time>2012-09-10T12:36:45Z</time>
      </trkpt>
      <trkpt lat="43.7768" lon="5.15818">
        <ele>229.41</ele>
        <time>2012-09-10T12:37:03Z</time>
      </trkpt>
      <trkpt lat="43.77678" lon="5.15816">
        <ele>228.93</ele>
        <time>2012-09-10T12:37:20Z</time>
      </trkpt>
      <trkpt lat="43.77676" lon="5.15816">
        <ele>228.93</ele>
        <time>2012-09-10T12:37:22Z</time>
      </trkpt>
      <trkpt lat="43.77658" lon="5.15811">
        <ele>227.97</ele>
        <time>2012-09-10T12:37:38Z</time>
      </trkpt>
      <trkpt lat="43.77655" lon="5.15809">
        <ele>227.49</ele>
        <time>2012-09-10T12:37:41Z</time>
      </trkpt>
      <trkpt lat="43.77641" lon="5.15799">
        <ele>226.53</ele>
        <time>2012-09-10T12:37:58Z</time>
      </trkpt>
      <trkpt lat="43.77623" lon="5.15801">
        <ele>225.09</ele>
        <time>2012-09-10T12:38:15Z</time>
      </trkpt>
      <trkpt lat="43.77617" lon="5.15802">
        <ele>225.09</ele>
        <time>2012-09-10T12:38:20Z</time>
      </trkpt>
      <trkpt lat="43.77607" lon="5.15798">
        <ele>224.61</ele>
        <time>2012-09-10T12:38:34Z</time>
      </trkpt>
      <trkpt lat="43.77605" lon="5.15802">
        <ele>225.09</ele>
        <time>2012-09-10T12:38:51Z</time>
      </trkpt>
      <trkpt lat="43.77603" lon="5.158">
        <ele>224.12</ele>
        <time>2012-09-10T12:38:54Z</time>
      </trkpt>
      <trkpt lat="43.77593" lon="5.15792">
        <ele>223.64</ele>
        <time>2012-09-10T12:39:06Z</time>
      </trkpt>
      <trkpt lat="43.77588" lon="5.15783">
        <ele>222.68</ele>
        <time>2012-09-10T12:39:16Z</time>
      </trkpt>
      <trkpt lat="43.77587" lon="5.15781">
        <ele>223.16</ele>
        <time>2012-09-10T12:39:18Z</time>
      </trkpt>
      <trkpt lat="43.77585" lon="5.1578">
        <ele>222.2</ele>
        <time>2012-09-10T12:39:20Z</time>
      </trkpt>
      <trkpt lat="43.77582" lon="5.15778">
        <ele>222.2</ele>
        <time>2012-09-10T12:39:23Z</time>
      </trkpt>
      <trkpt lat="43.77571" lon="5.1577">
        <ele>220.28</ele>
        <time>2012-09-10T12:39:35Z</time>
      </trkpt>
      <trkpt lat="43.77555" lon="5.15766">
        <ele>218.84</ele>
        <time>2012-09-10T12:39:49Z</time>
      </trkpt>
      <trkpt lat="43.77548" lon="5.15762">
        <ele>218.36</ele>
        <time>2012-09-10T12:39:55Z</time>
      </trkpt>
      <trkpt lat="43.77528" lon="5.15751">
        <ele>216.43</ele>
        <time>2012-09-10T12:40:10Z</time>
      </trkpt>
      <trkpt lat="43.77522" lon="5.15755">
        <ele>216.43</ele>
        <time>2012-09-10T12:40:14Z</time>
      </trkpt>
      <trkpt lat="43.77518" lon="5.1576">
        <ele>216.43</ele>
        <time>2012-09-10T12:40:18Z</time>
      </trkpt>
      <trkpt lat="43.77506" lon="5.15778">
        <ele>215.47</ele>
        <time>2012-09-10T12:40:32Z</time>
      </trkpt>
      <trkpt lat="43.77494" lon="5.15794">
        <ele>214.03</ele>
        <time>2012-09-10T12:40:47Z</time>
      </trkpt>
      <trkpt lat="43.7748" lon="5.15797">
        <ele>213.07</ele>
        <time>2012-09-10T12:40:59Z</time>
      </trkpt>
      <trkpt lat="43.7747" lon="5.158">
        <ele>212.11</ele>
        <time>2012-09-10T12:41:09Z</time>
      </trkpt>
      <trkpt lat="43.77466" lon="5.15799">
        <ele>211.63</ele>
        <time>2012-09-10T12:41:11Z</time>
      </trkpt>
      <trkpt lat="43.77456" lon="5.15797">
        <ele>210.19</ele>
        <time>2012-09-10T12:41:21Z</time>
      </trkpt>
      <trkpt lat="43.77441" lon="5.15797">
        <ele>208.74</ele>
        <time>2012-09-10T12:41:35Z</time>
      </trkpt>
      <trkpt lat="43.77426" lon="5.15797">
        <ele>208.74</ele>
        <time>2012-09-10T12:41:49Z</time>
      </trkpt>
      <trkpt lat="43.77425" lon="5.15796">
        <ele>208.26</ele>
        <time>2012-09-10T12:41:50Z</time>
      </trkpt>
      <trkpt lat="43.77411" lon="5.15788">
        <ele>208.26</ele>
        <time>2012-09-10T12:42:02Z</time>
      </trkpt>
      <trkpt lat="43.77393" lon="5.15789">
        <ele>207.78</ele>
        <time>2012-09-10T12:42:15Z</time>
      </trkpt>
      <trkpt lat="43.77387" lon="5.1579">
        <ele>207.3</ele>
        <time>2012-09-10T12:42:20Z</time>
      </trkpt>
      <trkpt lat="43.77372" lon="5.15797">
        <ele>206.82</ele>
        <time>2012-09-10T12:42:33Z</time>
      </trkpt>
      <trkpt lat="43.77359" lon="5.15801">
        <ele>205.86</ele>
        <time>2012-09-10T12:42:47Z</time>
      </trkpt>
      <trkpt lat="43.77359" lon="5.15801">
        <ele>205.86</ele>
        <time>2012-09-10T12:42:48Z</time>
      </trkpt>
      <trkpt lat="43.77345" lon="5.15798">
        <ele>203.94</ele>
        <time>2012-09-10T12:43:01Z</time>
      </trkpt>
      <trkpt lat="43.77339" lon="5.15795">
        <ele>203.46</ele>
        <time>2012-09-10T12:43:07Z</time>
      </trkpt>
      <trkpt lat="43.77329" lon="5.15795">
        <ele>203.46</ele>
        <time>2012-09-10T12:43:16Z</time>
      </trkpt>
      <trkpt lat="43.77315" lon="5.1579">
        <ele>203.46</ele>
        <time>2012-09-10T12:43:27Z</time>
      </trkpt>
      <trkpt lat="43.77305" lon="5.15788">
        <ele>203.46</ele>
        <time>2012-09-10T12:43:36Z</time>
      </trkpt>
      <trkpt lat="43.77289" lon="5.15785">
        <ele>202.49</ele>
        <time>2012-09-10T12:43:51Z</time>
      </trkpt>
      <trkpt lat="43.77284" lon="5.15784">
        <ele>202.49</ele>
        <time>2012-09-10T12:43:57Z</time>
      </trkpt>
      <trkpt lat="43.77266" lon="5.15785">
        <ele>201.53</ele>
        <time>2012-09-10T12:44:12Z</time>
      </trkpt>
      <trkpt lat="43.7725" lon="5.15786">
        <ele>200.09</ele>
        <time>2012-09-10T12:44:26Z</time>
      </trkpt>
      <trkpt lat="43.77237" lon="5.15803">
        <ele>199.61</ele>
        <time>2012-09-10T12:44:41Z</time>
      </trkpt>
      <trkpt lat="43.77235" lon="5.15811">
        <ele>199.61</ele>
        <time>2012-09-10T12:44:45Z</time>
      </trkpt>
      <trkpt lat="43.77232" lon="5.15828">
        <ele>199.61</ele>
        <time>2012-09-10T12:44:55Z</time>
      </trkpt>
      <trkpt lat="43.77234" lon="5.15848">
        <ele>198.65</ele>
        <time>2012-09-10T12:45:08Z</time>
      </trkpt>
      <trkpt lat="43.77234" lon="5.15879">
        <ele>198.17</ele>
        <time>2012-09-10T12:45:26Z</time>
      </trkpt>
      <trkpt lat="43.77238" lon="5.15903">
        <ele>197.69</ele>
        <time>2012-09-10T12:45:41Z</time>
      </trkpt>
      <trkpt lat="43.7715" lon="5.15916">
        <ele>195.77</ele>
        <time>2012-09-10T12:46:25Z</time>
      </trkpt>
      <trkpt lat="43.77129" lon="5.15899">
        <ele>195.77</ele>
        <time>2012-09-10T12:46:46Z</time>
      </trkpt>
      <trkpt lat="43.77117" lon="5.15891">
        <ele>195.28</ele>
        <time>2012-09-10T12:47:00Z</time>
      </trkpt>
      <trkpt lat="43.77102" lon="5.15891">
        <ele>194.8</ele>
        <time>2012-09-10T12:47:12Z</time>
      </trkpt>
      <trkpt lat="43.771" lon="5.15893">
        <ele>195.77</ele>
        <time>2012-09-10T12:47:20Z</time>
      </trkpt>
      <trkpt lat="43.77101" lon="5.15898">
        <ele>196.25</ele>
        <time>2012-09-10T12:47:23Z</time>
      </trkpt>
      <trkpt lat="43.77097" lon="5.15906">
        <ele>197.21</ele>
        <time>2012-09-10T12:47:35Z</time>
      </trkpt>
      <trkpt lat="43.77095" lon="5.15906">
        <ele>200.09</ele>
        <time>2012-09-10T12:47:44Z</time>
      </trkpt>
      <trkpt lat="43.77094" lon="5.15899">
        <ele>198.17</ele>
        <time>2012-09-10T12:48:02Z</time>
      </trkpt>
      <trkpt lat="43.77094" lon="5.15888">
        <ele>195.77</ele>
        <time>2012-09-10T12:48:15Z</time>
      </trkpt>
      <trkpt lat="43.77085" lon="5.15885">
        <ele>194.8</ele>
        <time>2012-09-10T12:48:29Z</time>
      </trkpt>
      <trkpt lat="43.77071" lon="5.15866">
        <ele>194.32</ele>
        <time>2012-09-10T12:48:46Z</time>
      </trkpt>
      <trkpt lat="43.77064" lon="5.15861">
        <ele>192.88</ele>
        <time>2012-09-10T12:49:06Z</time>
      </trkpt>
      <trkpt lat="43.77051" lon="5.15861">
        <ele>191.44</ele>
        <time>2012-09-10T12:49:21Z</time>
      </trkpt>
      <trkpt lat="43.7705" lon="5.15857">
        <ele>189.04</ele>
        <time>2012-09-10T12:49:37Z</time>
      </trkpt>
      <trkpt lat="43.77046" lon="5.15863">
        <ele>189.04</ele>
        <time>2012-09-10T12:49:55Z</time>
      </trkpt>
      <trkpt lat="43.77044" lon="5.15855">
        <ele>188.56</ele>
        <time>2012-09-10T12:50:29Z</time>
      </trkpt>
      <trkpt lat="43.77015" lon="5.15868">
        <ele>185.19</ele>
        <time>2012-09-10T12:51:12Z</time>
      </trkpt>
      <trkpt lat="43.77016" lon="5.15867">
        <ele>182.31</ele>
        <time>2012-09-10T12:51:26Z</time>
      </trkpt>
      <trkpt lat="43.77004" lon="5.15852">
        <ele>182.79</ele>
        <time>2012-09-10T12:51:40Z</time>
      </trkpt>
      <trkpt lat="43.76993" lon="5.15848">
        <ele>181.83</ele>
        <time>2012-09-10T12:51:57Z</time>
      </trkpt>
      <trkpt lat="43.76984" lon="5.1585">
        <ele>180.38</ele>
        <time>2012-09-10T12:52:07Z</time>
      </trkpt>
      <trkpt lat="43.76971" lon="5.15849">
        <ele>177.5</ele>
        <time>2012-09-10T12:52:23Z</time>
      </trkpt>
      <trkpt lat="43.7697" lon="5.15848">
        <ele>174.14</ele>
        <time>2012-09-10T12:52:43Z</time>
      </trkpt>
      <trkpt lat="43.76773" lon="5.15843">
        <ele>162.12</ele>
        <time>2012-09-10T13:01:11Z</time>
      </trkpt>
      <trkpt lat="43.76763" lon="5.15836">
        <ele>161.16</ele>
        <time>2012-09-10T13:01:24Z</time>
      </trkpt>
      <trkpt lat="43.76762" lon="5.15832">
        <ele>159.72</ele>
        <time>2012-09-10T13:01:32Z</time>
      </trkpt>
      <trkpt lat="43.7676" lon="5.15839">
        <ele>159.24</ele>
        <time>2012-09-10T13:01:47Z</time>
      </trkpt>
      <trkpt lat="43.76746" lon="5.15839">
        <ele>158.27</ele>
        <time>2012-09-10T13:02:03Z</time>
      </trkpt>
      <trkpt lat="43.76723" lon="5.15832">
        <ele>156.83</ele>
        <time>2012-09-10T13:02:17Z</time>
      </trkpt>
      <trkpt lat="43.76713" lon="5.15826">
        <ele>156.83</ele>
        <time>2012-09-10T13:02:20Z</time>
      </trkpt>
      <trkpt lat="43.76695" lon="5.15822">
        <ele>156.35</ele>
        <time>2012-09-10T13:02:33Z</time>
      </trkpt>
      <trkpt lat="43.76691" lon="5.15821">
        <ele>157.31</ele>
        <time>2012-09-10T13:02:49Z</time>
      </trkpt>
      <trkpt lat="43.7669" lon="5.1582">
        <ele>154.43</ele>
        <time>2012-09-10T13:03:04Z</time>
      </trkpt>
      <trkpt lat="43.76688" lon="5.15821">
        <ele>153.95</ele>
        <time>2012-09-10T13:03:08Z</time>
      </trkpt>
      <trkpt lat="43.76676" lon="5.15812">
        <ele>152.99</ele>
        <time>2012-09-10T13:03:21Z</time>
      </trkpt>
      <trkpt lat="43.76662" lon="5.15794">
        <ele>152.99</ele>
        <time>2012-09-10T13:03:39Z</time>
      </trkpt>
      <trkpt lat="43.76653" lon="5.15779">
        <ele>152.51</ele>
        <time>2012-09-10T13:03:55Z</time>
      </trkpt>
      <trkpt lat="43.76644" lon="5.15765">
        <ele>152.03</ele>
        <time>2012-09-10T13:04:10Z</time>
      </trkpt>
      <trkpt lat="43.76637" lon="5.15761">
        <ele>152.03</ele>
        <time>2012-09-10T13:04:28Z</time>
      </trkpt>
      <trkpt lat="43.76632" lon="5.15756">
        <ele>152.03</ele>
        <time>2012-09-10T13:04:39Z</time>
      </trkpt>
      <trkpt lat="43.76626" lon="5.15754">
        <ele>152.99</ele>
        <time>2012-09-10T13:04:43Z</time>
      </trkpt>
      <trkpt lat="43.76622" lon="5.15743">
        <ele>152.51</ele>
        <time>2012-09-10T13:04:58Z</time>
      </trkpt>
      <trkpt lat="43.76621" lon="5.15742">
        <ele>151.06</ele>
        <time>2012-09-10T13:05:17Z</time>
      </trkpt>
      <trkpt lat="43.76618" lon="5.1574">
        <ele>148.66</ele>
        <time>2012-09-10T13:05:35Z</time>
      </trkpt>
      <trkpt lat="43.76608" lon="5.15739">
        <ele>147.22</ele>
        <time>2012-09-10T13:05:50Z</time>
      </trkpt>
      <trkpt lat="43.76589" lon="5.1573">
        <ele>146.26</ele>
        <time>2012-09-10T13:06:09Z</time>
      </trkpt>
      <trkpt lat="43.76577" lon="5.15738">
        <ele>146.74</ele>
        <time>2012-09-10T13:06:24Z</time>
      </trkpt>
      <trkpt lat="43.76582" lon="5.1573">
        <ele>146.74</ele>
        <time>2012-09-10T13:07:02Z</time>
      </trkpt>
      <trkpt lat="43.76579" lon="5.15726">
        <ele>148.18</ele>
        <time>2012-09-10T13:07:28Z</time>
      </trkpt>
      <trkpt lat="43.76572" lon="5.15689">
        <ele>146.74</ele>
        <time>2012-09-10T13:08:19Z</time>
      </trkpt>
      <trkpt lat="43.76571" lon="5.1569">
        <ele>146.74</ele>
        <time>2012-09-10T13:08:20Z</time>
      </trkpt>
      <trkpt lat="43.7656" lon="5.15706">
        <ele>146.26</ele>
        <time>2012-09-10T13:08:35Z</time>
      </trkpt>
      <trkpt lat="43.76559" lon="5.15704">
        <ele>146.26</ele>
        <time>2012-09-10T13:08:43Z</time>
      </trkpt>
      <trkpt lat="43.76554" lon="5.15701">
        <ele>145.78</ele>
        <time>2012-09-10T13:08:50Z</time>
      </trkpt>
      <trkpt lat="43.76547" lon="5.15708">
        <ele>143.85</ele>
        <time>2012-09-10T13:09:03Z</time>
      </trkpt>
      <trkpt lat="43.76544" lon="5.15714">
        <ele>143.37</ele>
        <time>2012-09-10T13:09:21Z</time>
      </trkpt>
      <trkpt lat="43.76522" lon="5.15713">
        <ele>143.37</ele>
        <time>2012-09-10T13:10:44Z</time>
      </trkpt>
      <trkpt lat="43.76523" lon="5.15714">
        <ele>142.89</ele>
        <time>2012-09-10T13:10:48Z</time>
      </trkpt>
      <trkpt lat="43.76511" lon="5.15715">
        <ele>143.37</ele>
        <time>2012-09-10T13:10:58Z</time>
      </trkpt>
      <trkpt lat="43.76503" lon="5.15715">
        <ele>142.89</ele>
        <time>2012-09-10T13:11:02Z</time>
      </trkpt>
      <trkpt lat="43.76497" lon="5.15715">
        <ele>142.41</ele>
        <time>2012-09-10T13:11:06Z</time>
      </trkpt>
      <trkpt lat="43.7649" lon="5.15718">
        <ele>142.41</ele>
        <time>2012-09-10T13:11:14Z</time>
      </trkpt>
      <trkpt lat="43.76488" lon="5.15721">
        <ele>142.41</ele>
        <time>2012-09-10T13:11:25Z</time>
      </trkpt>
      <trkpt lat="43.76494" lon="5.15723">
        <ele>141.93</ele>
        <time>2012-09-10T13:11:35Z</time>
      </trkpt>
      <trkpt lat="43.76492" lon="5.15726">
        <ele>142.41</ele>
        <time>2012-09-10T13:11:38Z</time>
      </trkpt>
      <trkpt lat="43.76483" lon="5.15737">
        <ele>142.41</ele>
        <time>2012-09-10T13:11:51Z</time>
      </trkpt>
      <trkpt lat="43.76471" lon="5.15735">
        <ele>141.45</ele>
        <time>2012-09-10T13:12:07Z</time>
      </trkpt>
      <trkpt lat="43.76463" lon="5.15731">
        <ele>141.45</ele>
        <time>2012-09-10T13:12:18Z</time>
      </trkpt>
      <trkpt lat="43.76452" lon="5.15716">
        <ele>140.97</ele>
        <time>2012-09-10T13:12:33Z</time>
      </trkpt>
      <trkpt lat="43.76449" lon="5.15707">
        <ele>140.01</ele>
        <time>2012-09-10T13:12:47Z</time>
      </trkpt>
      <trkpt lat="43.76449" lon="5.15704">
        <ele>139.53</ele>
        <time>2012-09-10T13:12:49Z</time>
      </trkpt>
      <trkpt lat="43.76449" lon="5.15701">
        <ele>138.57</ele>
        <time>2012-09-10T13:12:51Z</time>
      </trkpt>
      <trkpt lat="43.76446" lon="5.15682">
        <ele>138.09</ele>
        <time>2012-09-10T13:13:03Z</time>
      </trkpt>
      <trkpt lat="43.7644" lon="5.15671">
        <ele>138.09</ele>
        <time>2012-09-10T13:13:10Z</time>
      </trkpt>
      <trkpt lat="43.76436" lon="5.15652">
        <ele>137.61</ele>
        <time>2012-09-10T13:13:21Z</time>
      </trkpt>
      <trkpt lat="43.76433" lon="5.15631">
        <ele>137.13</ele>
        <time>2012-09-10T13:13:30Z</time>
      </trkpt>
      <trkpt lat="43.76432" lon="5.1562">
        <ele>137.61</ele>
        <time>2012-09-10T13:13:38Z</time>
      </trkpt>
      <trkpt lat="43.76423" lon="5.15612">
        <ele>137.13</ele>
        <time>2012-09-10T13:13:47Z</time>
      </trkpt>
      <trkpt lat="43.76404" lon="5.156">
        <ele>135.68</ele>
        <time>2012-09-10T13:14:03Z</time>
      </trkpt>
      <trkpt lat="43.76398" lon="5.15596">
        <ele>135.68</ele>
        <time>2012-09-10T13:14:08Z</time>
      </trkpt>
      <trkpt lat="43.76388" lon="5.15581">
        <ele>135.68</ele>
        <time>2012-09-10T13:14:19Z</time>
      </trkpt>
      <trkpt lat="43.76385" lon="5.15578">
        <ele>136.16</ele>
        <time>2012-09-10T13:14:21Z</time>
      </trkpt>
      <trkpt lat="43.76376" lon="5.15566">
        <ele>135.68</ele>
        <time>2012-09-10T13:14:29Z</time>
      </trkpt>
      <trkpt lat="43.76372" lon="5.15564">
        <ele>135.68</ele>
        <time>2012-09-10T13:14:32Z</time>
      </trkpt>
      <trkpt lat="43.76356" lon="5.15563">
        <ele>134.72</ele>
        <time>2012-09-10T13:14:45Z</time>
      </trkpt>
      <trkpt lat="43.76349" lon="5.15564">
        <ele>134.72</ele>
        <time>2012-09-10T13:14:50Z</time>
      </trkpt>
      <trkpt lat="43.76346" lon="5.15565">
        <ele>134.72</ele>
        <time>2012-09-10T13:14:53Z</time>
      </trkpt>
      <trkpt lat="43.76334" lon="5.15569">
        <ele>134.24</ele>
        <time>2012-09-10T13:15:05Z</time>
      </trkpt>
      <trkpt lat="43.7633" lon="5.15569">
        <ele>133.76</ele>
        <time>2012-09-10T13:15:08Z</time>
      </trkpt>
      <trkpt lat="43.76313" lon="5.15571">
        <ele>133.28</ele>
        <time>2012-09-10T13:15:21Z</time>
      </trkpt>
      <trkpt lat="43.76306" lon="5.15572">
        <ele>132.8</ele>
        <time>2012-09-10T13:15:29Z</time>
      </trkpt>
      <trkpt lat="43.76301" lon="5.15571">
        <ele>132.32</ele>
        <time>2012-09-10T13:15:34Z</time>
      </trkpt>
      <trkpt lat="43.76298" lon="5.15572">
        <ele>132.32</ele>
        <time>2012-09-10T13:15:36Z</time>
      </trkpt>
      <trkpt lat="43.76295" lon="5.15574">
        <ele>132.32</ele>
        <time>2012-09-10T13:15:39Z</time>
      </trkpt>
      <trkpt lat="43.76285" lon="5.15577">
        <ele>131.84</ele>
        <time>2012-09-10T13:15:51Z</time>
      </trkpt>
      <trkpt lat="43.76285" lon="5.15577">
        <ele>131.84</ele>
        <time>2012-09-10T13:16:11Z</time>
      </trkpt>
      <trkpt lat="43.76278" lon="5.15586">
        <ele>132.32</ele>
        <time>2012-09-10T13:16:22Z</time>
      </trkpt>
      <trkpt lat="43.76269" lon="5.15613">
        <ele>130.4</ele>
        <time>2012-09-10T13:16:38Z</time>
      </trkpt>
      <trkpt lat="43.76267" lon="5.15635">
        <ele>129.92</ele>
        <time>2012-09-10T13:16:51Z</time>
      </trkpt>
      <trkpt lat="43.76262" lon="5.15654">
        <ele>128.95</ele>
        <time>2012-09-10T13:17:04Z</time>
      </trkpt>
      <trkpt lat="43.76256" lon="5.15674">
        <ele>126.55</ele>
        <time>2012-09-10T13:17:18Z</time>
      </trkpt>
      <trkpt lat="43.76246" lon="5.15698">
        <ele>125.11</ele>
        <time>2012-09-10T13:17:34Z</time>
      </trkpt>
      <trkpt lat="43.76245" lon="5.15699">
        <ele>125.11</ele>
        <time>2012-09-10T13:17:36Z</time>
      </trkpt>
      <trkpt lat="43.76232" lon="5.15709">
        <ele>125.11</ele>
        <time>2012-09-10T13:17:50Z</time>
      </trkpt>
      <trkpt lat="43.76229" lon="5.15717">
        <ele>124.15</ele>
        <time>2012-09-10T13:17:56Z</time>
      </trkpt>
      <trkpt lat="43.76223" lon="5.15723">
        <ele>124.15</ele>
        <time>2012-09-10T13:18:02Z</time>
      </trkpt>
      <trkpt lat="43.76216" lon="5.15727">
        <ele>124.15</ele>
        <time>2012-09-10T13:18:15Z</time>
      </trkpt>
      <trkpt lat="43.76214" lon="5.15726">
        <ele>124.15</ele>
        <time>2012-09-10T13:18:17Z</time>
      </trkpt>
      <trkpt lat="43.76202" lon="5.15725">
        <ele>123.19</ele>
        <time>2012-09-10T13:18:28Z</time>
      </trkpt>
      <trkpt lat="43.76197" lon="5.15725">
        <ele>123.19</ele>
        <time>2012-09-10T13:18:32Z</time>
      </trkpt>
      <trkpt lat="43.76191" lon="5.15725">
        <ele>122.22</ele>
        <time>2012-09-10T13:18:37Z</time>
      </trkpt>
      <trkpt lat="43.76185" lon="5.15725">
        <ele>122.71</ele>
        <time>2012-09-10T13:18:44Z</time>
      </trkpt>
      <trkpt lat="43.76175" lon="5.15731">
        <ele>122.71</ele>
        <time>2012-09-10T13:18:52Z</time>
      </trkpt>
      <trkpt lat="43.76166" lon="5.15731">
        <ele>122.22</ele>
        <time>2012-09-10T13:19:00Z</time>
      </trkpt>
      <trkpt lat="43.76148" lon="5.15726">
        <ele>121.74</ele>
        <time>2012-09-10T13:19:15Z</time>
      </trkpt>
      <trkpt lat="43.76146" lon="5.15725">
        <ele>122.22</ele>
        <time>2012-09-10T13:19:16Z</time>
      </trkpt>
      <trkpt lat="43.76136" lon="5.15724">
        <ele>121.26</ele>
        <time>2012-09-10T13:19:27Z</time>
      </trkpt>
      <trkpt lat="43.76122" lon="5.1572">
        <ele>121.26</ele>
        <time>2012-09-10T13:19:39Z</time>
      </trkpt>
      <trkpt lat="43.76106" lon="5.15712">
        <ele>120.78</ele>
        <time>2012-09-10T13:19:51Z</time>
      </trkpt>
      <trkpt lat="43.76092" lon="5.15711">
        <ele>120.78</ele>
        <time>2012-09-10T13:20:03Z</time>
      </trkpt>
      <trkpt lat="43.76086" lon="5.15713">
        <ele>119.82</ele>
        <time>2012-09-10T13:20:09Z</time>
      </trkpt>
      <trkpt lat="43.76076" lon="5.15721">
        <ele>119.82</ele>
        <time>2012-09-10T13:20:17Z</time>
      </trkpt>
      <trkpt lat="43.76064" lon="5.15722">
        <ele>120.78</ele>
        <time>2012-09-10T13:20:30Z</time>
      </trkpt>
      <trkpt lat="43.76053" lon="5.15725">
        <ele>120.3</ele>
        <time>2012-09-10T13:20:43Z</time>
      </trkpt>
      <trkpt lat="43.76052" lon="5.15733">
        <ele>119.34</ele>
        <time>2012-09-10T13:20:58Z</time>
      </trkpt>
      <trkpt lat="43.76051" lon="5.15735">
        <ele>119.82</ele>
        <time>2012-09-10T13:21:10Z</time>
      </trkpt>
      <trkpt lat="43.76049" lon="5.15733">
        <ele>119.82</ele>
        <time>2012-09-10T13:21:13Z</time>
      </trkpt>
      <trkpt lat="43.76036" lon="5.15728">
        <ele>117.9</ele>
        <time>2012-09-10T13:21:25Z</time>
      </trkpt>
      <trkpt lat="43.76032" lon="5.15726">
        <ele>117.42</ele>
        <time>2012-09-10T13:21:29Z</time>
      </trkpt>
      <trkpt lat="43.76015" lon="5.15717">
        <ele>117.42</ele>
        <time>2012-09-10T13:21:42Z</time>
      </trkpt>
      <trkpt lat="43.76012" lon="5.15716">
        <ele>116.94</ele>
        <time>2012-09-10T13:21:45Z</time>
      </trkpt>
      <trkpt lat="43.76009" lon="5.15714">
        <ele>116.94</ele>
        <time>2012-09-10T13:21:48Z</time>
      </trkpt>
      <trkpt lat="43.75999" lon="5.15696">
        <ele>116.94</ele>
        <time>2012-09-10T13:21:59Z</time>
      </trkpt>
      <trkpt lat="43.75992" lon="5.15692">
        <ele>117.42</ele>
        <time>2012-09-10T13:22:07Z</time>
      </trkpt>
      <trkpt lat="43.7598" lon="5.15693">
        <ele>117.9</ele>
        <time>2012-09-10T13:22:22Z</time>
      </trkpt>
      <trkpt lat="43.75976" lon="5.1569">
        <ele>117.9</ele>
        <time>2012-09-10T13:22:26Z</time>
      </trkpt>
      <trkpt lat="43.75975" lon="5.1569">
        <ele>117.42</ele>
        <time>2012-09-10T13:22:39Z</time>
      </trkpt>
      <trkpt lat="43.75973" lon="5.15691">
        <ele>116.94</ele>
        <time>2012-09-10T13:22:58Z</time>
      </trkpt>
      <trkpt lat="43.75973" lon="5.15692">
        <ele>116.94</ele>
        <time>2012-09-10T13:23:19Z</time>
      </trkpt>
      <trkpt lat="43.75977" lon="5.157">
        <ele>116.46</ele>
        <time>2012-09-10T13:23:31Z</time>
      </trkpt>
      <trkpt lat="43.75979" lon="5.15706">
        <ele>116.94</ele>
        <time>2012-09-10T13:23:34Z</time>
      </trkpt>
      <trkpt lat="43.75981" lon="5.1571">
        <ele>117.42</ele>
        <time>2012-09-10T13:23:50Z</time>
      </trkpt>
      <trkpt lat="43.75981" lon="5.15709">
        <ele>117.42</ele>
        <time>2012-09-10T13:24:04Z</time>
      </trkpt>
      <trkpt lat="43.75978" lon="5.15706">
        <ele>116.94</ele>
        <time>2012-09-10T13:24:07Z</time>
      </trkpt>
      <trkpt lat="43.75971" lon="5.15692">
        <ele>116.94</ele>
        <time>2012-09-10T13:24:20Z</time>
      </trkpt>
      <trkpt lat="43.75969" lon="5.15692">
        <ele>116.46</ele>
        <time>2012-09-10T13:24:22Z</time>
      </trkpt>
      <trkpt lat="43.75966" lon="5.15689">
        <ele>116.94</ele>
        <time>2012-09-10T13:24:35Z</time>
      </trkpt>
      <trkpt lat="43.75958" lon="5.15681">
        <ele>115.98</ele>
        <time>2012-09-10T13:24:43Z</time>
      </trkpt>
      <trkpt lat="43.75947" lon="5.15674">
        <ele>115.5</ele>
        <time>2012-09-10T13:24:56Z</time>
      </trkpt>
      <trkpt lat="43.75944" lon="5.15674">
        <ele>115.01</ele>
        <time>2012-09-10T13:24:59Z</time>
      </trkpt>
      <trkpt lat="43.75941" lon="5.15673">
        <ele>115.01</ele>
        <time>2012-09-10T13:25:02Z</time>
      </trkpt>
      <trkpt lat="43.75938" lon="5.15672">
        <ele>115.5</ele>
        <time>2012-09-10T13:25:05Z</time>
      </trkpt>
      <trkpt lat="43.75923" lon="5.15662">
        <ele>115.01</ele>
        <time>2012-09-10T13:25:16Z</time>
      </trkpt>
      <trkpt lat="43.75922" lon="5.15661">
        <ele>115.5</ele>
        <time>2012-09-10T13:25:17Z</time>
      </trkpt>
      <trkpt lat="43.75918" lon="5.15659">
        <ele>115.01</ele>
        <time>2012-09-10T13:25:21Z</time>
      </trkpt>
      <trkpt lat="43.75914" lon="5.15655">
        <ele>114.53</ele>
        <time>2012-09-10T13:25:31Z</time>
      </trkpt>
      <trkpt lat="43.75908" lon="5.15649">
        <ele>115.5</ele>
        <time>2012-09-10T13:25:39Z</time>
      </trkpt>
      <trkpt lat="43.75908" lon="5.15653">
        <ele>114.53</ele>
        <time>2012-09-10T13:25:59Z</time>
      </trkpt>
      <trkpt lat="43.75911" lon="5.15654">
        <ele>115.01</ele>
        <time>2012-09-10T13:26:14Z</time>
      </trkpt>
    </trkseg>
  </trk>
</gpx>